Hlavní strana
METAR-TAF:

METAR-TAF

Letiště :

Richmond, Virginie, Spojené státy americké

zeměpisná šířka: 37-24-24N, zeměpisná délka: 077-31-30W, výška: 72 m

Aktuální stav počasí

Zpráva byla vytvořena před 19 minutami, v 00:56 UTC
Západojihozápadní vítr 3 kt
Teplota 21°C
Vlhkost vzduchu 60%
Tlak 1004 hPa
Viditelnost: 16.1 km
Jasno

METAR: KFCI 090056Z AUTO 25003KT 10SM CLR 21/13 A2964 RMK AO2 SLP046 T02110128

Čas: 21:15 (01:15 UTC)


TAF: chybějící

Stav a předpovědi počasí z více než 4 000 letišť (zprávy METAR a TAF).

Červené a žluté tečky na mapě představují dostupné meteorologické stanice.

Když kurzor umístíte na tečku, zobrazí se název stanice.

Pak kliknutím zobrazíte stav a předpověď počasí.

Chcete-li změnit mapu, kliknutím na zelené tlačítko se znaménkem +mapu přiblížíte, kliknutím na zelené tlačítko se znaménkem – mapu oddálíte a kliknutím na zelené šipky přejdete na sousední mapy.


METAR-TAF: